createdAt,value
2022-10-02T00:00:07.463Z,21.08
2022-10-02T00:03:45.361Z,21.15
2022-10-02T00:06:21.779Z,21.24
2022-10-02T00:08:59.099Z,21.26
2022-10-02T00:11:44.555Z,21.21
2022-10-02T00:14:05.413Z,21.16
2022-10-02T00:16:32.805Z,21.09
2022-10-02T00:18:54.146Z,21.07
2022-10-02T00:19:58.377Z,20.93
2022-10-02T00:22:31.920Z,21.01
2022-10-02T00:25:05.077Z,20.95
2022-10-02T00:26:18.743Z,20.87
2022-10-02T00:28:52.712Z,20.97
2022-10-02T00:31:29.866Z,20.97
2022-10-02T00:34:26.738Z,20.95
2022-10-02T00:38:36.666Z,20.89
2022-10-02T00:41:37.586Z,20.86
2022-10-02T00:42:56.465Z,20.73
2022-10-02T00:46:17.813Z,20.76
2022-10-02T00:49:10.403Z,20.62
2022-10-02T00:51:42.118Z,20.55
2022-10-02T00:54:20.440Z,20.46
2022-10-02T00:57:17.525Z,20.47
2022-10-02T00:58:28.437Z,20.36
2022-10-02T01:02:27.448Z,20.39
2022-10-02T01:04:54.544Z,20.36
2022-10-02T01:05:57.982Z,20.23
2022-10-02T01:07:03.968Z,20.22
2022-10-02T01:08:07.801Z,20.23
2022-10-02T01:10:23.955Z,20.33
2022-10-02T01:11:28.940Z,20.20
2022-10-02T01:13:44.203Z,20.34
2022-10-02T01:15:59.452Z,20.31
2022-10-02T01:17:05.320Z,20.18
2022-10-02T01:19:39.582Z,20.29
2022-10-02T01:22:19.627Z,20.30
2022-10-02T01:24:50.632Z,20.30
2022-10-02T01:25:54.229Z,20.20
2022-10-02T01:28:10.053Z,20.36
2022-10-02T01:30:30.300Z,20.41
2022-10-02T01:32:53.195Z,20.47
2022-10-02T01:35:08.483Z,20.47
2022-10-02T01:36:14.307Z,20.38
2022-10-02T01:37:19.904Z,20.39
2022-10-02T01:38:23.969Z,20.35
2022-10-02T01:40:40.764Z,20.42
2022-10-02T01:41:45.024Z,20.32
2022-10-02T01:42:49.731Z,20.33
2022-10-02T01:45:08.751Z,20.49
2022-10-02T01:49:12.472Z,20.55
2022-10-02T01:51:49.190Z,20.54
2022-10-02T01:53:19.193Z,20.43
2022-10-02T01:55:58.480Z,20.46
2022-10-02T01:58:26.038Z,20.39
2022-10-02T02:06:33.870Z,20.34
2022-10-02T02:07:49.803Z,20.25
2022-10-02T02:10:57.264Z,20.38
2022-10-02T02:13:27.835Z,20.37
2022-10-02T02:15:52.550Z,20.39
2022-10-02T02:18:33.179Z,20.44
2022-10-02T02:21:01.619Z,20.46
2022-10-02T02:23:26.663Z,20.52
2022-10-02T02:26:07.197Z,20.57
2022-10-02T02:27:17.195Z,20.50
2022-10-02T02:28:23.019Z,20.50
2022-10-02T02:30:47.283Z,20.61
2022-10-02T02:31:52.804Z,20.53
2022-10-02T02:34:18.099Z,20.69
2022-10-02T02:36:45.749Z,20.76
2022-10-02T02:37:52.415Z,20.67
2022-10-02T02:40:14.468Z,20.80
2022-10-02T02:42:36.418Z,20.82
2022-10-02T02:45:18.324Z,20.84
2022-10-02T02:47:54.932Z,20.83
2022-10-02T02:51:31.477Z,20.87
2022-10-02T02:54:15.137Z,20.86
2022-10-02T02:55:51.338Z,20.74
2022-10-02T02:56:56.980Z,20.75
2022-10-02T02:59:27.891Z,20.93
2022-10-02T03:01:42.587Z,20.90
2022-10-02T03:02:46.100Z,20.78
2022-10-02T03:05:00.377Z,20.93
2022-10-02T03:06:19.309Z,20.80
2022-10-02T03:07:22.931Z,20.82
2022-10-02T03:08:29.461Z,20.82
2022-10-02T03:10:47.558Z,20.97
2022-10-02T03:13:58.337Z,21.00
2022-10-02T03:16:36.021Z,21.00
2022-10-02T03:17:55.523Z,20.82
2022-10-02T03:20:41.833Z,20.94
2022-10-02T03:21:51.498Z,20.92
2022-10-02T03:23:04.217Z,20.85
2022-10-02T03:25:49.058Z,20.98
2022-10-02T03:28:55.620Z,20.99
2022-10-02T03:31:05.231Z,20.90
2022-10-02T03:33:24.529Z,20.88
2022-10-02T03:35:43.057Z,20.95
2022-10-02T03:36:47.459Z,20.86
2022-10-02T03:39:24.071Z,21.03
2022-10-02T03:41:27.637Z,21.00
2022-10-02T03:42:33.759Z,20.87
2022-10-02T03:43:37.953Z,20.90
2022-10-02T03:45:53.907Z,21.01
2022-10-02T03:46:57.149Z,20.93
2022-10-02T03:49:11.805Z,21.02
2022-10-02T03:51:27.021Z,21.02
2022-10-02T03:52:33.300Z,20.89
2022-10-02T03:53:36.577Z,20.90
2022-10-02T03:57:26.102Z,21.01
2022-10-02T03:59:44.657Z,21.02
2022-10-02T04:02:29.396Z,21.03
2022-10-02T04:05:48.080Z,21.00
2022-10-02T04:06:54.957Z,20.89
2022-10-02T04:09:29.293Z,21.04
2022-10-02T04:12:09.467Z,20.93
2022-10-02T04:13:19.464Z,20.82
2022-10-02T04:16:02.864Z,21.01
2022-10-02T04:18:49.352Z,21.06
2022-10-02T04:21:32.003Z,21.10
2022-10-02T04:24:00.181Z,21.14
2022-10-02T04:26:34.420Z,21.16
2022-10-02T04:27:56.753Z,21.09
2022-10-02T04:30:21.459Z,21.22
2022-10-02T04:31:24.834Z,21.14
2022-10-02T04:32:33.733Z,21.19
2022-10-02T04:34:47.865Z,21.35
2022-10-02T04:39:50.567Z,21.37
2022-10-02T04:42:41.607Z,21.38
2022-10-02T04:46:56.291Z,21.39
2022-10-02T04:48:03.271Z,21.30
2022-10-02T04:51:13.484Z,21.42
2022-10-02T04:52:32.542Z,21.32
2022-10-02T04:55:19.661Z,21.44
2022-10-02T04:58:06.702Z,21.48
2022-10-02T05:01:22.811Z,21.52
2022-10-02T05:04:46.557Z,21.61
2022-10-02T05:06:12.357Z,21.53
2022-10-02T05:07:19.394Z,21.55
2022-10-02T05:10:12.706Z,21.70
2022-10-02T05:11:36.319Z,21.58
2022-10-02T05:13:01.803Z,21.57
2022-10-02T05:15:44.100Z,21.62
2022-10-02T05:18:38.533Z,21.52
2022-10-02T05:21:24.073Z,21.44
2022-10-02T05:25:38.197Z,21.48
2022-10-02T05:26:57.557Z,21.37
2022-10-02T05:29:55.990Z,21.44
2022-10-02T05:32:36.139Z,21.45
2022-10-02T05:35:09.838Z,21.48
2022-10-02T05:36:19.763Z,21.36
2022-10-02T05:39:05.697Z,21.50
2022-10-02T05:41:30.674Z,21.55
2022-10-02T05:42:42.850Z,21.45
2022-10-02T05:45:25.649Z,21.52
2022-10-02T05:47:57.390Z,21.37
2022-10-02T05:50:25.128Z,21.30
2022-10-02T05:51:41.470Z,21.20
2022-10-02T05:54:44.651Z,21.32
2022-10-02T05:57:27.078Z,21.51
2022-10-02T06:00:14.586Z,21.65
2022-10-02T06:03:07.281Z,21.70
2022-10-02T06:05:53.101Z,21.74
2022-10-02T06:08:17.351Z,21.84
2022-10-02T06:12:21.348Z,21.90
2022-10-02T06:13:31.277Z,21.81
2022-10-02T06:14:50.565Z,21.85
2022-10-02T06:18:29.029Z,21.93
2022-10-02T06:21:02.546Z,21.86
2022-10-02T06:22:15.092Z,21.75
2022-10-02T06:23:27.586Z,21.73
2022-10-02T06:27:42.711Z,21.80
2022-10-02T06:30:04.766Z,21.70
2022-10-02T06:31:11.884Z,21.57
2022-10-02T06:32:35.529Z,21.47
2022-10-02T06:34:50.276Z,21.48
2022-10-02T06:36:09.596Z,21.37
2022-10-02T06:38:31.269Z,21.16
2022-10-02T06:41:16.134Z,21.02
2022-10-02T06:42:29.244Z,20.91
2022-10-02T06:45:11.910Z,20.92
2022-10-02T06:46:34.277Z,20.80
2022-10-02T06:47:56.244Z,20.81
2022-10-02T06:50:54.643Z,20.78
2022-10-02T06:52:04.706Z,20.71
2022-10-02T06:53:14.732Z,20.80
2022-10-02T06:56:36.431Z,20.69
2022-10-02T06:59:13.187Z,20.63
2022-10-02T07:01:37.593Z,20.65
2022-10-02T07:02:47.550Z,20.42
2022-10-02T07:05:45.720Z,20.65
2022-10-02T07:08:40.990Z,20.57
2022-10-02T07:11:31.250Z,20.49
2022-10-02T07:12:38.274Z,20.34
2022-10-02T07:15:19.683Z,20.43
2022-10-02T07:19:48.330Z,20.29
2022-10-02T07:22:43.879Z,20.48
2022-10-02T07:25:14.990Z,20.46
2022-10-02T07:26:34.708Z,20.33
2022-10-02T07:29:15.691Z,20.65
2022-10-02T07:31:49.305Z,20.61
2022-10-02T07:34:30.897Z,20.47
2022-10-02T07:37:44.287Z,20.24
2022-10-02T07:40:33.286Z,20.25
2022-10-02T07:41:43.434Z,20.13
2022-10-02T07:44:44.717Z,20.19
2022-10-02T07:46:17.780Z,19.85
2022-10-02T07:48:57.563Z,20.00
2022-10-02T07:51:52.857Z,19.42
2022-10-02T07:53:07.658Z,19.24
2022-10-02T07:55:53.310Z,19.82
2022-10-02T07:59:33.643Z,31.17
2022-10-02T08:02:04.042Z,30.62
2022-10-02T08:04:34.781Z,29.99
2022-10-02T08:08:31.854Z,29.66
2022-10-02T08:10:57.163Z,30.06
2022-10-02T08:13:22.029Z,30.54
2022-10-02T08:15:54.573Z,30.06
2022-10-02T08:18:34.220Z,30.60
2022-10-02T08:20:45.473Z,30.74
2022-10-02T08:24:27.825Z,30.30
2022-10-02T08:30:57.652Z,30.85
2022-10-02T08:33:21.425Z,31.01
2022-10-02T08:34:24.813Z,30.68
2022-10-02T08:37:19.001Z,30.10
2022-10-02T08:40:12.389Z,30.92
2022-10-02T08:42:56.041Z,30.84
2022-10-02T08:44:12.276Z,30.29
2022-10-02T08:47:07.977Z,31.10
2022-10-02T08:48:42.660Z,30.73
2022-10-02T08:51:53.393Z,30.24
2022-10-02T08:53:23.496Z,29.95
2022-10-02T08:56:19.197Z,29.35
2022-10-02T08:57:35.568Z,28.73
2022-10-02T09:00:03.865Z,29.34
2022-10-02T09:01:29.129Z,29.81
2022-10-02T09:04:38.484Z,29.34
2022-10-02T09:07:41.794Z,29.42
2022-10-02T09:10:49.487Z,27.90
2022-10-02T09:12:23.574Z,28.76
2022-10-02T09:16:45.806Z,29.11
2022-10-02T09:18:09.620Z,28.91
2022-10-02T09:20:55.085Z,29.74
2022-10-02T09:23:51.762Z,29.96
2022-10-02T09:26:48.850Z,29.69
2022-10-02T09:28:34.990Z,29.26
2022-10-02T09:30:19.106Z,30.24
2022-10-02T09:33:15.967Z,29.17
2022-10-02T09:34:31.096Z,28.83
2022-10-02T09:37:26.837Z,27.57
2022-10-02T09:41:49.564Z,27.12
2022-10-02T09:43:05.803Z,27.47
2022-10-02T09:45:48.188Z,27.57
2022-10-02T09:48:56.985Z,27.65
2022-10-02T09:51:50.169Z,27.81
2022-10-02T09:54:43.695Z,27.92
2022-10-02T09:57:39.221Z,28.15
2022-10-02T10:00:28.547Z,28.61
2022-10-02T10:01:44.684Z,28.82
2022-10-02T10:03:00.573Z,28.63
2022-10-02T10:05:34.861Z,29.06
2022-10-02T10:08:52.105Z,28.59
2022-10-02T10:10:17.253Z,28.92
2022-10-02T10:13:22.312Z,28.69
2022-10-02T10:16:07.438Z,28.41
2022-10-02T10:17:14.681Z,28.43
2022-10-02T10:18:38.794Z,28.39
2022-10-02T10:21:39.882Z,27.78
2022-10-02T10:22:59.181Z,27.00
2022-10-02T10:25:59.739Z,27.66
2022-10-02T10:28:46.007Z,27.75
2022-10-02T10:30:08.031Z,27.82
2022-10-02T10:33:14.597Z,26.67
2022-10-02T10:36:16.092Z,26.35
2022-10-02T10:40:17.322Z,26.18
2022-10-02T10:43:24.007Z,26.26
2022-10-02T10:46:36.315Z,25.00
2022-10-02T10:48:03.643Z,25.13
2022-10-02T10:52:32.798Z,25.61
2022-10-02T10:55:40.572Z,25.26
2022-10-02T10:58:22.484Z,24.65
2022-10-02T11:01:14.806Z,24.90
2022-10-02T11:04:24.065Z,25.20
2022-10-02T11:08:45.102Z,26.05
2022-10-02T11:11:18.970Z,25.74
2022-10-02T11:12:41.455Z,25.32
2022-10-02T11:15:50.892Z,24.47
2022-10-02T11:17:13.730Z,24.33
2022-10-02T11:19:50.698Z,24.48
2022-10-02T11:22:15.520Z,25.29
2022-10-02T11:24:43.204Z,24.60
2022-10-02T11:27:17.940Z,24.57
2022-10-02T11:29:57.005Z,25.00
2022-10-02T11:31:06.646Z,24.86
2022-10-02T11:34:21.682Z,24.76
2022-10-02T11:36:01.304Z,24.17
2022-10-02T11:38:51.108Z,24.79
2022-10-02T11:41:45.231Z,25.05
2022-10-02T11:43:09.456Z,25.59
2022-10-02T11:47:01.369Z,24.75
2022-10-02T11:48:17.453Z,24.95
2022-10-02T11:51:14.606Z,25.11
2022-10-02T11:53:48.268Z,24.72
2022-10-02T11:56:31.561Z,23.88
2022-10-02T11:58:04.648Z,24.22
2022-10-02T12:01:13.927Z,25.27
2022-10-02T12:02:23.464Z,24.01
2022-10-02T12:05:00.074Z,23.91
2022-10-02T12:06:23.765Z,24.34
2022-10-02T12:10:32.938Z,24.55
2022-10-02T12:12:02.639Z,24.89
2022-10-02T12:13:24.511Z,24.89
2022-10-02T12:15:56.534Z,24.00
2022-10-02T12:17:33.791Z,24.28
2022-10-02T12:20:18.933Z,24.72
2022-10-02T12:21:23.928Z,24.25
2022-10-02T12:23:51.842Z,24.57
2022-10-02T12:29:51.257Z,22.75
2022-10-02T12:32:36.060Z,24.36
2022-10-02T12:35:32.286Z,23.32
2022-10-02T12:36:42.266Z,24.45
2022-10-02T12:39:34.593Z,24.35
2022-10-02T12:40:59.802Z,24.71
2022-10-02T12:42:15.877Z,23.30
2022-10-02T12:43:56.807Z,24.21
2022-10-02T12:47:10.533Z,24.10
2022-10-02T12:48:37.554Z,23.61
2022-10-02T12:51:31.864Z,23.96
2022-10-02T12:54:43.194Z,23.91
2022-10-02T13:00:58.941Z,24.36
2022-10-02T13:03:56.080Z,23.87
2022-10-02T13:06:54.387Z,23.73
2022-10-02T13:10:02.205Z,23.69
2022-10-02T13:12:44.452Z,24.27
2022-10-02T13:14:12.594Z,24.10
2022-10-02T13:17:10.228Z,22.66
2022-10-02T13:18:34.510Z,23.58
2022-10-02T13:21:33.176Z,22.74
2022-10-02T13:22:55.396Z,22.60
2022-10-02T13:24:11.343Z,23.40
2022-10-02T13:27:09.285Z,23.93
2022-10-02T13:29:51.809Z,22.72
2022-10-02T13:33:56.902Z,23.40
2022-10-02T13:38:09.219Z,24.44
2022-10-02T13:40:58.242Z,23.97
2022-10-02T13:42:11.079Z,23.90
2022-10-02T13:44:51.413Z,23.74
2022-10-02T13:47:42.309Z,24.14
2022-10-02T13:50:17.490Z,23.28
2022-10-02T13:52:53.105Z,23.58
2022-10-02T13:55:34.072Z,21.34
2022-10-02T13:58:25.518Z,23.38
2022-10-02T14:02:49.706Z,24.02
2022-10-02T14:05:57.054Z,22.75
2022-10-02T14:07:20.579Z,22.03
2022-10-02T14:10:18.242Z,23.32
2022-10-02T14:13:12.783Z,23.36
2022-10-02T14:14:21.802Z,23.79
2022-10-02T14:16:59.399Z,22.65
2022-10-02T14:18:24.410Z,22.02
2022-10-02T14:21:35.409Z,23.39
2022-10-02T14:24:20.582Z,22.49
2022-10-02T14:27:02.399Z,23.43
2022-10-02T14:28:32.351Z,23.31
2022-10-02T14:33:02.629Z,21.69
2022-10-02T14:37:17.014Z,21.58
2022-10-02T14:39:52.471Z,21.37
2022-10-02T14:42:14.104Z,22.98
2022-10-02T14:45:14.611Z,21.42
2022-10-02T14:49:45.099Z,21.63
2022-10-02T14:52:40.307Z,22.71
2022-10-02T14:57:03.268Z,22.22
2022-10-02T14:58:28.257Z,21.26
2022-10-02T15:01:17.619Z,21.21
2022-10-02T15:02:30.629Z,21.41
2022-10-02T15:05:36.483Z,21.24
2022-10-02T15:06:58.446Z,21.58
2022-10-02T15:09:23.751Z,20.77
2022-10-02T15:12:00.379Z,21.03
2022-10-02T15:14:49.037Z,20.56
2022-10-02T15:18:40.323Z,20.33
2022-10-02T15:21:29.826Z,20.45
2022-10-02T15:22:45.654Z,20.88
2022-10-02T15:25:26.595Z,21.12
2022-10-02T15:26:36.718Z,20.55
2022-10-02T15:29:29.382Z,20.11
2022-10-02T15:31:03.550Z,19.92
2022-10-02T15:32:27.596Z,19.96
2022-10-02T15:35:15.947Z,21.02
2022-10-02T15:38:15.581Z,20.78
2022-10-02T15:41:09.327Z,20.18
2022-10-02T15:42:35.180Z,20.11
2022-10-02T15:46:49.083Z,19.50
2022-10-02T15:48:28.086Z,19.60
2022-10-02T15:51:47.034Z,27.01
2022-10-02T15:54:43.929Z,25.44
2022-10-02T15:56:05.851Z,26.31
2022-10-02T15:59:11.114Z,26.59
2022-10-02T16:00:22.888Z,26.18
2022-10-02T16:03:06.837Z,24.45
2022-10-02T16:05:57.305Z,25.52
2022-10-02T16:08:54.092Z,25.72
2022-10-02T16:11:31.036Z,26.13
2022-10-02T16:15:26.639Z,25.49
2022-10-02T16:16:40.249Z,24.57
2022-10-02T16:19:18.019Z,24.88
2022-10-02T16:22:15.601Z,26.23
2022-10-02T16:25:05.956Z,24.71
2022-10-02T16:26:25.599Z,24.28
2022-10-02T16:29:23.632Z,24.33
2022-10-02T16:31:51.659Z,24.34
2022-10-02T16:34:45.118Z,24.47
2022-10-02T16:35:52.260Z,25.00
2022-10-02T16:38:47.416Z,24.36
2022-10-02T16:41:37.220Z,24.79
2022-10-02T16:44:08.700Z,24.71
2022-10-02T16:47:03.885Z,24.54
2022-10-02T16:49:40.338Z,24.45
2022-10-02T16:52:08.438Z,23.48
2022-10-02T16:54:42.521Z,23.87
2022-10-02T16:57:22.612Z,23.84
2022-10-02T16:59:47.729Z,24.34
2022-10-02T17:00:58.679Z,22.92
2022-10-02T17:03:32.601Z,23.01
2022-10-02T17:06:08.683Z,23.59
2022-10-02T17:08:55.073Z,24.19
2022-10-02T17:11:39.701Z,23.47
2022-10-02T17:14:36.822Z,24.20
2022-10-02T17:17:23.503Z,23.24
2022-10-02T17:19:57.668Z,23.67
2022-10-02T17:22:47.676Z,23.34
2022-10-02T17:25:33.581Z,23.96
2022-10-02T17:27:09.555Z,23.64
2022-10-02T17:30:06.694Z,21.89
2022-10-02T17:31:48.879Z,22.87
2022-10-02T17:34:28.633Z,22.99
2022-10-02T17:37:08.068Z,23.26
2022-10-02T17:39:46.347Z,23.38
2022-10-02T17:42:34.378Z,22.65
2022-10-02T17:45:25.739Z,22.51
2022-10-02T17:48:09.178Z,22.77
2022-10-02T17:50:43.036Z,22.84
2022-10-02T17:51:56.330Z,22.86
2022-10-02T17:54:29.479Z,23.47
2022-10-02T17:56:01.311Z,23.07
2022-10-02T17:59:24.085Z,21.32
2022-10-02T18:02:20.827Z,21.91
2022-10-02T18:06:52.905Z,23.01
2022-10-02T18:11:09.575Z,23.05
2022-10-02T18:13:54.969Z,23.41
2022-10-02T18:15:22.355Z,23.27
2022-10-02T18:16:58.517Z,22.34
2022-10-02T18:19:43.223Z,22.58
2022-10-02T18:21:05.668Z,22.84
2022-10-02T18:23:46.556Z,23.43
2022-10-02T18:26:29.451Z,23.32
2022-10-02T18:29:20.029Z,22.84
2022-10-02T18:32:04.356Z,23.24
2022-10-02T18:33:20.948Z,23.01
2022-10-02T18:35:54.908Z,23.56
2022-10-02T18:40:23.355Z,23.45
2022-10-02T18:41:49.996Z,22.91
2022-10-02T18:44:33.068Z,23.64
2022-10-02T18:46:13.965Z,23.55
2022-10-02T18:49:05.096Z,23.35
2022-10-02T18:52:25.231Z,23.36
2022-10-02T18:55:36.238Z,23.31
2022-10-02T18:57:00.216Z,22.58
2022-10-02T18:59:38.847Z,22.69
2022-10-02T19:02:19.174Z,23.08
2022-10-02T19:05:11.798Z,23.24
2022-10-02T19:06:33.528Z,23.10
2022-10-02T19:09:09.283Z,22.00
2022-10-02T19:10:31.683Z,22.81
2022-10-02T19:11:47.441Z,22.77
2022-10-02T19:16:26.047Z,22.55
2022-10-02T19:18:43.477Z,23.01
2022-10-02T19:19:46.921Z,22.97
2022-10-02T19:22:26.650Z,23.10
2022-10-02T19:25:07.150Z,23.33
2022-10-02T19:27:37.948Z,23.26
2022-10-02T19:29:59.172Z,23.06
2022-10-02T19:31:05.946Z,22.89
2022-10-02T19:32:13.085Z,23.10
2022-10-02T19:34:32.139Z,22.48
2022-10-02T19:37:00.937Z,22.87
2022-10-02T19:44:50.311Z,22.01
2022-10-02T19:47:27.203Z,21.97
2022-10-02T19:51:08.669Z,22.86
2022-10-02T19:52:42.511Z,22.34
2022-10-02T19:56:44.430Z,21.93
2022-10-02T19:57:49.352Z,22.05
2022-10-02T20:00:18.929Z,22.54
2022-10-02T20:01:28.319Z,22.59
2022-10-02T20:03:56.197Z,22.27
2022-10-02T20:07:32.745Z,23.13
2022-10-02T20:10:18.435Z,23.16
2022-10-02T20:11:31.468Z,23.39
2022-10-02T20:15:14.924Z,23.48
2022-10-02T20:16:23.273Z,23.23
2022-10-02T20:17:26.821Z,23.45
2022-10-02T20:18:30.561Z,22.70
2022-10-02T20:20:55.754Z,23.25
2022-10-02T20:22:05.479Z,23.29
2022-10-02T20:23:13.165Z,23.54
2022-10-02T20:26:54.999Z,22.22
2022-10-02T20:28:02.102Z,22.41
2022-10-02T20:30:22.908Z,22.79
2022-10-02T20:32:59.542Z,23.46
2022-10-02T20:35:27.963Z,22.84
2022-10-02T20:37:52.790Z,22.60
2022-10-02T20:40:29.684Z,23.10
2022-10-02T20:43:00.445Z,22.74
2022-10-02T20:45:16.610Z,23.06
2022-10-02T20:48:35.797Z,23.44
2022-10-02T20:53:04.731Z,22.49
2022-10-02T20:55:50.338Z,22.42
2022-10-02T21:00:16.397Z,22.85
2022-10-02T21:02:49.042Z,22.47
2022-10-02T21:05:52.780Z,22.18
2022-10-02T21:08:46.943Z,22.91
2022-10-02T21:11:58.810Z,22.39
2022-10-02T21:13:11.723Z,21.70
2022-10-02T21:16:13.964Z,22.45
2022-10-02T21:19:03.693Z,22.85
2022-10-02T21:21:38.114Z,22.85
2022-10-02T21:23:00.574Z,22.48
2022-10-02T21:24:30.397Z,22.47
2022-10-02T21:27:11.119Z,21.98
2022-10-02T21:28:24.355Z,22.31
2022-10-02T21:31:13.178Z,22.18
2022-10-02T21:32:38.832Z,22.23
2022-10-02T21:35:32.278Z,22.25
2022-10-02T21:39:38.212Z,22.13
2022-10-02T21:42:34.549Z,21.89
2022-10-02T21:43:53.159Z,22.12
2022-10-02T21:45:35.458Z,21.54
2022-10-02T21:47:08.633Z,21.94
2022-10-02T21:52:14.540Z,22.58
2022-10-02T21:53:24.633Z,21.90
2022-10-02T21:56:45.582Z,22.76
2022-10-02T22:00:01.159Z,22.83
2022-10-02T22:02:49.397Z,22.33
2022-10-02T22:04:19.231Z,22.15
2022-10-02T22:07:05.451Z,22.28
2022-10-02T22:10:21.691Z,22.56
2022-10-02T22:13:21.569Z,22.34
2022-10-02T22:17:42.968Z,22.62
2022-10-02T22:22:09.712Z,21.54
2022-10-02T22:23:28.127Z,21.84
2022-10-02T22:26:41.811Z,21.88
2022-10-02T22:29:18.707Z,22.68
2022-10-02T22:30:26.149Z,21.93
2022-10-02T22:33:18.298Z,21.83
2022-10-02T22:35:54.352Z,22.10
2022-10-02T22:37:02.058Z,21.67
2022-10-02T22:39:32.353Z,21.47
2022-10-02T22:42:09.383Z,22.09
2022-10-02T22:43:22.380Z,22.30
2022-10-02T22:45:49.648Z,22.37
2022-10-02T22:50:01.035Z,22.10
2022-10-02T22:52:47.462Z,22.06
2022-10-02T22:55:35.399Z,22.14
2022-10-02T22:58:00.506Z,22.25
2022-10-02T23:00:28.597Z,22.75
2022-10-02T23:04:41.020Z,22.48
2022-10-02T23:07:54.557Z,22.26
2022-10-02T23:10:41.046Z,22.06
2022-10-02T23:13:30.093Z,22.02
2022-10-02T23:16:06.669Z,22.07
2022-10-02T23:18:46.025Z,21.91
2022-10-02T23:21:20.011Z,21.99
2022-10-02T23:24:21.269Z,22.44
2022-10-02T23:28:24.546Z,22.30
2022-10-02T23:30:55.351Z,22.15
2022-10-02T23:33:27.151Z,21.64
2022-10-02T23:36:06.645Z,21.99
2022-10-02T23:37:25.184Z,21.80
2022-10-02T23:40:18.267Z,21.67
2022-10-02T23:41:25.661Z,22.16
2022-10-02T23:44:26.906Z,21.84
2022-10-02T23:46:52.166Z,21.71
2022-10-02T23:49:14.839Z,22.15
2022-10-02T23:50:54.051Z,22.37
2022-10-02T23:53:26.371Z,22.37
2022-10-02T23:56:17.970Z,22.26
